Time;durP1;ratioP1;P1;durP2;ratioP2;P2;SDS_P1;SDS_P2;PMS_P1;PMS_P2;Temp;Humidity;BMP_temperature;BMP_pressure;BME280_temperature;BME280_humidity;BME280_pressure;Samples;Min_cycle;Max_cycle;Signal;HPM_P1;HPM_P2
2023/11/25 00:00:21;;;;;;;5.10;1.92;;;2.20;83.50;;;;;;4995411;28;20030;-75
2023/11/25 00:02:50;;;;;;;4.82;1.20;;;2.10;83.10;;;;;;4995317;28;20022;-74
2023/11/25 00:05:16;;;;;;;7.50;1.30;;;2.10;83.40;;;;;;4995429;28;20037;-74
2023/11/25 00:07:42;;;;;;;6.88;1.42;;;2.20;82.80;;;;;;4998394;28;20030;-76
2023/11/25 00:10:08;;;;;;;6.80;1.45;;;2.10;82.70;;;;;;4998924;28;20030;-72
2023/11/25 00:12:36;;;;;;;3.50;1.17;;;2.20;82.60;;;;;;4998835;28;20109;-74
2023/11/25 00:15:03;;;;;;;7.47;1.50;;;2.10;82.60;;;;;;4998804;28;20479;-74
2023/11/25 00:17:30;;;;;;;1.67;1.00;;;2.10;82.30;;;;;;4998720;28;20034;-73
2023/11/25 00:19:56;;;;;;;6.65;1.33;;;2.00;82.50;;;;;;4998768;28;20498;-73
2023/11/25 00:22:22;;;;;;;6.22;1.30;;;2.10;82.70;;;;;;4998563;28;20033;-73
2023/11/25 00:24:48;;;;;;;5.43;1.00;;;2.10;82.40;;;;;;4998606;28;20222;-73
2023/11/25 00:27:14;;;;;;;3.58;0.77;;;2.20;81.40;;;;;;4998601;28;20080;-74
2023/11/25 00:29:40;;;;;;;6.03;1.05;;;2.20;80.90;;;;;;4998557;28;20386;-74
2023/11/25 00:32:07;;;;;;;3.17;1.00;;;2.20;81.20;;;;;;4998254;28;20034;-74
2023/11/25 00:34:33;;;;;;;4.45;1.30;;;2.10;82.30;;;;;;4998575;28;20068;-73
2023/11/25 00:36:58;;;;;;;4.82;1.27;;;2.10;83.10;;;;;;4998075;28;20026;-73
2023/11/25 00:39:24;;;;;;;3.97;1.08;;;2.00;84.80;;;;;;4998278;28;20057;-74
2023/11/25 00:41:50;;;;;;;5.30;1.58;;;2.00;84.40;;;;;;4998282;28;20073;-74
2023/11/25 00:44:15;;;;;;;3.28;1.10;;;2.00;84.70;;;;;;4998178;28;20049;-74
2023/11/25 00:46:42;;;;;;;5.13;1.20;;;2.00;85.40;;;;;;4998201;28;20079;-75
2023/11/25 00:49:08;;;;;;;4.93;1.17;;;1.90;86.00;;;;;;4997860;28;20399;-74
2023/11/25 00:51:34;;;;;;;6.15;1.30;;;1.90;85.80;;;;;;4998632;28;20498;-74
2023/11/25 00:53:59;;;;;;;10.52;1.20;;;1.90;86.10;;;;;;4998126;28;20119;-74
2023/11/25 00:56:25;;;;;;;5.75;1.02;;;1.90;86.50;;;;;;4997910;28;20466;-74
2023/11/25 00:58:51;;;;;;;4.72;1.05;;;1.80;87.10;;;;;;4994678;28;20491;-75
2023/11/25 01:01:16;;;;;;;6.20;1.38;;;1.80;87.40;;;;;;4994695;28;20113;-74
2023/11/25 01:03:42;;;;;;;5.97;1.50;;;1.80;88.00;;;;;;4994480;28;20498;-74
2023/11/25 01:06:08;;;;;;;6.80;1.58;;;1.80;88.10;;;;;;4994184;28;20037;-74
2023/11/25 01:08:37;;;;;;;5.25;1.48;;;1.80;87.80;;;;;;4994582;28;20041;-77
2023/11/25 01:11:02;;;;;;;6.78;1.30;;;1.70;87.40;;;;;;4994130;28;20105;-74
2023/11/25 01:13:28;;;;;;;4.55;1.13;;;1.70;87.20;;;;;;4994197;28;20057;-75
2023/11/25 01:15:54;;;;;;;6.13;1.15;;;1.80;87.30;;;;;;4995475;28;20030;-75
2023/11/25 01:18:20;;;;;;;8.82;1.10;;;1.80;87.50;;;;;;4993502;28;20018;-76
2023/11/25 01:20:46;;;;;;;8.07;1.40;;;1.80;87.50;;;;;;4994330;28;20057;-75
2023/11/25 01:23:12;;;;;;;6.68;1.63;;;1.80;87.50;;;;;;4994229;28;20061;-75
2023/11/25 01:25:37;;;;;;;3.85;0.85;;;1.80;87.70;;;;;;4994198;28;20107;-75
2023/11/25 01:28:06;;;;;;;9.88;1.45;;;1.70;87.80;;;;;;4994408;28;20380;-75
2023/11/25 01:30:32;;;;;;;11.80;3.33;;;1.80;88.10;;;;;;5001085;28;20546;-74
2023/11/25 01:32:58;;;;;;;14.35;3.38;;;1.80;88.00;;;;;;5009439;28;20042;-75
2023/11/25 01:35:27;;;;;;;8.35;1.35;;;1.70;88.10;;;;;;5000510;28;20027;-74
2023/11/25 01:37:54;;;;;;;8.02;2.00;;;1.70;88.10;;;;;;5000439;28;20117;-75
2023/11/25 01:40:22;;;;;;;5.20;0.93;;;1.60;88.00;;;;;;4997872;28;20526;-76
2023/11/25 01:42:49;;;;;;;6.30;1.15;;;1.60;88.10;;;;;;4996774;28;20018;-74
2023/11/25 01:45:14;;;;;;;4.70;1.30;;;1.60;87.50;;;;;;4993681;28;20096;-75
2023/11/25 01:47:40;;;;;;;4.43;1.27;;;1.70;87.10;;;;;;4995099;28;20463;-74
2023/11/25 01:50:06;;;;;;;7.07;1.45;;;1.70;86.50;;;;;;4993704;28;20034;-75
2023/11/25 01:52:34;;;;;;;2.47;0.93;;;1.60;86.80;;;;;;4993660;28;20026;-75
2023/11/25 01:55:01;;;;;;;6.30;1.25;;;1.70;86.80;;;;;;4993842;28;20480;-74
2023/11/25 01:57:29;;;;;;;5.10;0.90;;;1.70;86.50;;;;;;4995981;28;20378;-75
2023/11/25 01:59:56;;;;;;;5.90;0.98;;;1.70;86.20;;;;;;4997275;28;20120;-75
2023/11/25 02:02:25;;;;;;;4.45;1.00;;;1.70;85.80;;;;;;4996772;28;20053;-74
2023/11/25 02:04:52;;;;;;;3.90;0.93;;;1.80;85.80;;;;;;4996682;28;20073;-75
2023/11/25 02:07:17;;;;;;;3.72;1.05;;;1.80;85.60;;;;;;4996733;28;20102;-75
2023/11/25 02:09:43;;;;;;;3.50;0.85;;;1.90;85.50;;;;;;4996606;28;20451;-75
2023/11/25 02:12:10;;;;;;;3.33;0.80;;;1.80;85.10;;;;;;4996366;28;20029;-74
2023/11/25 02:14:37;;;;;;;8.35;1.08;;;1.80;85.40;;;;;;4996573;28;20058;-75
2023/11/25 02:17:04;;;;;;;2.88;1.00;;;1.80;85.30;;;;;;4996392;28;20029;-75
2023/11/25 02:19:31;;;;;;;8.27;0.90;;;1.80;85.60;;;;;;4996648;28;20030;-75
2023/11/25 02:21:57;;;;;;;4.45;0.80;;;1.80;85.10;;;;;;4996454;28;20047;-75
2023/11/25 02:24:26;;;;;;;5.20;1.33;;;1.90;84.60;;;;;;4996713;28;20116;-75
2023/11/25 02:27:03;;;;;;;5.68;0.93;;;1.80;84.40;;;;;;4996307;28;20026;-75
2023/11/25 02:29:31;;;;;;;6.00;1.50;;;1.90;84.00;;;;;;4996083;28;20041;-74
2023/11/25 02:31:58;;;;;;;1.67;0.85;;;1.90;83.50;;;;;;4996109;28;20057;-74
2023/11/25 02:34:24;;;;;;;5.80;1.48;;;1.80;83.20;;;;;;4996268;28;20025;-74
2023/11/25 02:36:50;;;;;;;5.78;1.55;;;1.80;83.50;;;;;;4996251;28;20026;-73
2023/11/25 02:39:18;;;;;;;9.73;1.65;;;1.80;83.60;;;;;;4996184;28;20029;-74
2023/11/25 02:41:49;;;;;;;3.95;1.05;;;1.90;83.60;;;;;;4996127;28;20118;-74
2023/11/25 02:44:15;;;;;;;7.03;1.23;;;1.90;83.20;;;;;;4996184;28;20031;-74
2023/11/25 02:46:48;;;;;;;2.50;1.10;;;1.90;82.80;;;;;;4996008;28;20049;-75
2023/11/25 02:49:14;;;;;;;6.95;1.48;;;1.90;82.50;;;;;;4995734;28;20038;-74
2023/11/25 02:51:50;;;;;;;6.13;1.23;;;1.90;82.90;;;;;;4996036;28;20026;-74
2023/11/25 02:54:17;;;;;;;4.45;1.10;;;2.00;82.20;;;;;;4995934;28;20033;-75
2023/11/25 02:56:42;;;;;;;6.88;1.00;;;2.00;82.50;;;;;;4995771;28;20017;-74
2023/11/25 02:59:09;;;;;;;6.93;1.80;;;2.00;82.00;;;;;;4995654;28;20057;-73
2023/11/25 03:01:39;;;;;;;2.97;0.98;;;2.00;82.10;;;;;;4979874;28;20378;-74
2023/11/25 03:04:05;;;;;;;5.78;1.58;;;2.10;82.20;;;;;;4983942;28;20027;-75
2023/11/25 03:06:31;;;;;;;5.35;1.50;;;2.20;82.10;;;;;;4976462;28;20022;-74
2023/11/25 03:08:57;;;;;;;5.60;1.40;;;2.20;81.80;;;;;;4976358;28;20089;-74
2023/11/25 03:11:23;;;;;;;5.00;1.50;;;2.30;82.50;;;;;;4976210;28;20022;-74
2023/11/25 03:13:49;;;;;;;5.80;1.25;;;2.40;81.70;;;;;;4975887;28;20030;-75
2023/11/25 03:16:15;;;;;;;6.25;1.23;;;2.40;81.70;;;;;;4976273;28;20026;-74
2023/11/25 03:18:41;;;;;;;4.43;1.20;;;2.50;81.80;;;;;;4976371;28;20026;-74
2023/11/25 03:21:09;;;;;;;5.43;1.40;;;2.50;81.70;;;;;;4976244;28;20029;-74
2023/11/25 03:23:38;;;;;;;5.57;1.42;;;2.60;81.40;;;;;;4976223;28;20041;-74
2023/11/25 03:26:05;;;;;;;6.88;1.75;;;2.60;81.70;;;;;;4976111;28;20044;-74
2023/11/25 03:28:32;;;;;;;5.40;1.42;;;2.60;80.60;;;;;;4976136;28;20050;-74
2023/11/25 03:31:02;;;;;;;6.68;1.83;;;2.60;80.90;;;;;;4976126;28;20030;-74
2023/11/25 03:33:28;;;;;;;8.80;1.98;;;2.60;80.80;;;;;;4976208;28;20407;-74
2023/11/25 03:35:53;;;;;;;6.03;1.60;;;2.60;80.90;;;;;;4976000;28;20085;-74
2023/11/25 03:38:19;;;;;;;4.72;1.40;;;2.60;80.80;;;;;;4976069;28;20415;-74
2023/11/25 03:40:44;;;;;;;8.02;1.70;;;2.60;80.40;;;;;;4975952;28;20494;-74
2023/11/25 03:43:10;;;;;;;6.05;1.13;;;2.60;80.50;;;;;;4979782;28;20030;-74
2023/11/25 03:45:36;;;;;;;8.75;2.10;;;2.60;80.10;;;;;;4979863;28;20096;-74
2023/11/25 03:48:02;;;;;;;4.68;1.67;;;2.60;79.60;;;;;;4979894;28;20058;-74
2023/11/25 03:50:28;;;;;;;5.90;1.40;;;2.50;79.40;;;;;;4979685;28;20032;-74
2023/11/25 03:52:54;;;;;;;3.75;1.25;;;2.50;79.00;;;;;;4979604;28;20076;-73
2023/11/25 03:55:20;;;;;;;8.45;1.92;;;2.40;78.30;;;;;;4979667;28;20072;-73
2023/11/25 03:57:45;;;;;;;6.03;1.27;;;2.40;78.90;;;;;;4979398;28;20042;-74
2023/11/25 04:00:14;;;;;;;7.57;1.10;;;2.30;77.80;;;;;;4979421;28;20506;-73
2023/11/25 04:02:44;;;;;;;6.65;1.15;;;2.30;78.10;;;;;;4979719;28;20073;-74
2023/11/25 04:05:11;;;;;;;8.00;1.67;;;2.30;78.00;;;;;;4979331;28;20025;-74
2023/11/25 04:07:37;;;;;;;5.25;1.27;;;2.30;77.80;;;;;;4979416;28;20027;-74
2023/11/25 04:10:12;;;;;;;5.80;1.38;;;2.30;78.80;;;;;;4979312;28;20034;-74
2023/11/25 04:12:41;;;;;;;3.40;1.20;;;2.40;78.00;;;;;;4979412;28;20034;-74
2023/11/25 04:15:09;;;;;;;13.45;1.73;;;2.40;77.80;;;;;;4979365;28;20038;-74
2023/11/25 04:17:35;;;;;;;6.15;1.75;;;2.40;77.10;;;;;;4981221;28;20026;-75
2023/11/25 04:20:02;;;;;;;7.82;1.70;;;2.40;76.70;;;;;;4982243;28;20019;-75
2023/11/25 04:22:28;;;;;;;8.35;2.10;;;2.30;76.50;;;;;;4980135;28;20026;-75
2023/11/25 04:24:54;;;;;;;6.60;1.58;;;2.30;76.90;;;;;;4979132;28;20022;-74
2023/11/25 04:27:21;;;;;;;5.60;1.98;;;2.30;76.90;;;;;;4979141;28;20076;-74
2023/11/25 04:29:47;;;;;;;5.85;1.55;;;2.30;76.90;;;;;;4979004;28;20432;-76
2023/11/25 04:32:12;;;;;;;7.50;2.05;;;2.30;77.10;;;;;;4979053;28;20026;-74
2023/11/25 04:34:38;;;;;;;5.43;1.45;;;2.30;77.20;;;;;;4978857;28;20030;-74
2023/11/25 04:37:04;;;;;;;5.80;1.58;;;2.30;77.60;;;;;;4978903;28;20022;-74
2023/11/25 04:39:30;;;;;;;7.68;1.60;;;2.30;77.50;;;;;;4978688;28;20022;-74
2023/11/25 04:41:55;;;;;;;4.30;1.45;;;2.30;77.30;;;;;;4978766;28;20030;-75
2023/11/25 04:44:21;;;;;;;3.58;1.42;;;2.30;77.50;;;;;;4978797;28;20110;-76
2023/11/25 04:46:46;;;;;;;5.60;1.42;;;2.20;77.60;;;;;;4978655;28;20034;-75
2023/11/25 04:49:12;;;;;;;5.28;1.88;;;2.30;77.90;;;;;;4978528;28;20125;-76
2023/11/25 04:51:38;;;;;;;7.47;2.08;;;2.30;77.90;;;;;;4978631;28;20029;-74
2023/11/25 04:54:04;;;;;;;9.20;1.58;;;2.30;78.20;;;;;;4977246;28;20022;-75
2023/11/25 04:56:30;;;;;;;5.47;1.98;;;2.30;78.20;;;;;;4978386;28;20493;-74
2023/11/25 04:58:56;;;;;;;8.02;1.60;;;2.30;78.20;;;;;;4978202;28;20126;-75
2023/11/25 05:01:22;;;;;;;4.05;1.42;;;2.20;77.90;;;;;;4978428;28;20048;-75
2023/11/25 05:03:47;;;;;;;6.15;1.75;;;2.20;77.70;;;;;;4978333;28;20471;-75
2023/11/25 05:06:13;;;;;;;6.88;1.52;;;2.20;77.80;;;;;;4978314;28;20039;-74
2023/11/25 05:08:39;;;;;;;5.85;1.27;;;2.20;77.80;;;;;;4977884;28;20101;-75
2023/11/25 05:11:05;;;;;;;7.03;2.00;;;2.20;77.90;;;;;;4978255;28;20105;-75
2023/11/25 05:13:31;;;;;;;3.92;1.55;;;2.30;78.20;;;;;;4978136;28;20026;-74
2023/11/25 05:15:57;;;;;;;7.55;2.28;;;2.30;78.30;;;;;;4978178;28;20030;-75
2023/11/25 05:18:23;;;;;;;6.25;2.10;;;2.30;77.90;;;;;;4977949;28;20029;-75
2023/11/25 05:20:49;;;;;;;10.27;3.28;;;2.30;77.40;;;;;;4977997;28;20030;-74
2023/11/25 05:23:15;;;;;;;8.35;2.80;;;2.30;76.70;;;;;;4978025;28;20014;-74
2023/11/25 05:25:40;;;;;;;10.85;3.75;;;2.30;75.40;;;;;;4977992;28;20027;-73
2023/11/25 05:28:07;;;;;;;8.32;3.13;;;2.20;75.60;;;;;;4977851;28;20089;-73
2023/11/25 05:30:33;;;;;;;12.95;4.20;;;2.10;75.30;;;;;;4977752;28;20026;-75
2023/11/25 05:32:58;;;;;;;7.80;2.85;;;2.10;75.50;;;;;;4977748;28;20023;-75
2023/11/25 05:35:24;;;;;;;7.30;1.70;;;2.00;75.50;;;;;;4977726;28;20101;-75
2023/11/25 05:37:49;;;;;;;9.25;3.35;;;2.00;75.50;;;;;;4977705;28;20026;-73
2023/11/25 05:40:15;;;;;;;6.68;3.35;;;1.90;75.70;;;;;;4977544;28;20053;-74
2023/11/25 05:42:47;;;;;;;10.43;4.95;;;1.90;76.00;;;;;;4977596;28;20098;-74
2023/11/25 05:45:13;;;;;;;11.13;4.95;;;1.90;76.30;;;;;;4988362;28;20028;-75
2023/11/25 05:47:38;;;;;;;10.75;4.00;;;1.90;77.00;;;;;;4996870;28;20120;-74
2023/11/25 05:50:06;;;;;;;10.23;5.07;;;1.90;77.70;;;;;;4996261;28;20384;-74
2023/11/25 05:52:32;;;;;;;5.93;2.88;;;1.90;77.90;;;;;;4996547;28;20022;-74
2023/11/25 05:54:57;;;;;;;6.90;2.50;;;1.90;77.80;;;;;;4996719;28;20022;-74
2023/11/25 05:57:23;;;;;;;10.77;1.85;;;1.80;77.90;;;;;;4996535;28;20470;-73
2023/11/25 05:59:48;;;;;;;10.48;2.45;;;1.80;77.70;;;;;;4996550;28;20042;-75
2023/11/25 06:02:14;;;;;;;2.88;1.58;;;1.80;78.00;;;;;;4996012;28;20022;-76
2023/11/25 06:04:39;;;;;;;5.63;1.70;;;1.80;78.30;;;;;;4996183;28;20032;-74
2023/11/25 06:07:05;;;;;;;3.22;1.58;;;1.80;78.30;;;;;;4996702;28;20438;-73
2023/11/25 06:09:31;;;;;;;7.55;2.15;;;1.80;78.60;;;;;;4996421;28;20125;-74
2023/11/25 06:11:57;;;;;;;5.82;1.55;;;1.90;78.70;;;;;;4996542;28;20018;-74
2023/11/25 06:14:24;;;;;;;8.88;2.42;;;1.70;78.80;;;;;;4996547;28;20026;-74
2023/11/25 06:16:52;;;;;;;4.85;1.70;;;1.70;79.30;;;;;;4996467;28;20030;-74
2023/11/25 06:19:18;;;;;;;7.60;2.60;;;1.60;79.40;;;;;;4996397;28;20033;-75
2023/11/25 06:21:45;;;;;;;6.63;2.35;;;1.50;79.70;;;;;;4996419;28;20014;-77
2023/11/25 06:24:11;;;;;;;8.77;2.42;;;1.50;80.20;;;;;;4996335;28;20434;-74
2023/11/25 06:26:37;;;;;;;6.07;1.90;;;1.40;80.50;;;;;;4996297;28;20022;-74
2023/11/25 06:29:03;;;;;;;6.55;1.70;;;1.30;80.90;;;;;;4995218;28;20033;-74
2023/11/25 06:31:28;;;;;;;6.10;1.77;;;1.30;81.30;;;;;;4995997;28;20030;-73
2023/11/25 06:33:55;;;;;;;3.60;1.58;;;1.20;81.60;;;;;;4996152;28;20026;-73
2023/11/25 06:36:21;;;;;;;2.92;1.30;;;1.30;81.60;;;;;;4996116;28;20482;-73
2023/11/25 06:38:46;;;;;;;6.88;1.60;;;1.20;81.30;;;;;;4995910;28;20030;-74
2023/11/25 06:41:12;;;;;;;6.85;1.38;;;1.20;81.20;;;;;;4996022;28;20113;-74
2023/11/25 06:43:38;;;;;;;5.82;2.03;;;1.20;80.80;;;;;;4995906;28;20045;-74
2023/11/25 06:46:05;;;;;;;7.05;1.40;;;1.20;80.90;;;;;;4995932;28;20026;-73
2023/11/25 06:48:31;;;;;;;9.02;2.00;;;1.10;80.80;;;;;;4995904;28;20030;-75
2023/11/25 06:50:58;;;;;;;6.32;2.30;;;1.20;80.50;;;;;;4995890;28;20087;-77
2023/11/25 06:53:23;;;;;;;6.85;1.92;;;1.10;80.60;;;;;;5013300;28;20037;-75
2023/11/25 06:55:49;;;;;;;7.10;2.10;;;1.20;80.40;;;;;;4995384;28;20144;-74
2023/11/25 06:58:14;;;;;;;5.57;1.77;;;1.20;80.10;;;;;;4995785;28;20054;-75
2023/11/25 07:00:41;;;;;;;6.72;2.67;;;1.20;79.90;;;;;;4996036;28;20467;-77
2023/11/25 07:03:11;;;;;;;3.25;1.70;;;1.10;79.70;;;;;;4996069;28;20046;-77
2023/11/25 07:05:37;;;;;;;6.22;1.80;;;1.20;80.00;;;;;;4996340;28;20041;-75
2023/11/25 07:08:03;;;;;;;11.02;2.35;;;1.20;79.90;;;;;;4996284;28;20026;-74
2023/11/25 07:10:34;;;;;;;6.53;2.40;;;1.20;79.80;;;;;;4995551;28;20530;-75
2023/11/25 07:13:07;;;;;;;9.93;2.75;;;1.20;80.00;;;;;;5013064;28;20029;-73
2023/11/25 07:15:33;;;;;;;9.25;2.78;;;1.20;79.50;;;;;;5012376;28;20034;-74
2023/11/25 07:17:59;;;;;;;8.35;2.80;;;1.20;79.30;;;;;;5012565;28;20084;-74
2023/11/25 07:20:25;;;;;;;10.88;3.10;;;1.20;79.60;;;;;;4995356;28;20382;-74
2023/11/25 07:22:51;;;;;;;7.25;2.88;;;1.30;79.60;;;;;;4995439;28;20022;-75
2023/11/25 07:25:18;;;;;;;8.77;2.78;;;1.30;79.40;;;;;;4995459;28;20026;-76
2023/11/25 07:27:45;;;;;;;7.53;2.08;;;1.40;79.20;;;;;;5012561;28;20034;-76
2023/11/25 07:30:12;;;;;;;6.03;1.95;;;1.40;79.00;;;;;;5012648;28;20061;-73
2023/11/25 07:32:38;;;;;;;5.82;1.90;;;1.50;79.20;;;;;;4995329;28;20463;-73
2023/11/25 07:35:08;;;;;;;9.30;2.33;;;1.60;79.90;;;;;;4994982;28;20037;-75
2023/11/25 07:37:35;;;;;;;10.23;2.58;;;1.70;79.00;;;;;;4995304;28;20029;-75
2023/11/25 07:40:03;;;;;;;8.43;2.40;;;1.70;77.30;;;;;;4995349;28;20394;-75
2023/11/25 07:42:29;;;;;;;10.98;2.67;;;1.70;77.30;;;;;;4995280;28;20037;-74
2023/11/25 07:44:54;;;;;;;9.07;2.17;;;1.90;77.20;;;;;;4995435;28;20215;-77
2023/11/25 07:47:21;;;;;;;5.47;1.92;;;2.10;78.10;;;;;;4995389;28;20033;-74
2023/11/25 07:49:47;;;;;;;8.82;2.70;;;2.20;76.70;;;;;;5012509;28;20042;-74
2023/11/25 07:52:15;;;;;;;7.53;2.22;;;2.40;76.10;;;;;;4995388;28;20105;-76
2023/11/25 07:54:41;;;;;;;8.07;2.70;;;2.50;75.90;;;;;;4995474;28;20026;-77
2023/11/25 07:57:08;;;;;;;7.28;2.30;;;2.40;75.10;;;;;;4995364;28;20061;-76
2023/11/25 07:59:34;;;;;;;8.95;2.83;;;2.40;74.30;;;;;;4994996;28;20050;-75
2023/11/25 08:02:00;;;;;;;7.35;2.78;;;2.40;74.50;;;;;;4995287;28;20026;-74
2023/11/25 08:04:25;;;;;;;7.32;2.80;;;2.50;74.80;;;;;;5013026;28;20084;-74
2023/11/25 08:06:51;;;;;;;9.70;2.97;;;2.50;74.40;;;;;;4995202;28;20033;-74
2023/11/25 08:09:18;;;;;;;5.95;1.90;;;2.40;73.90;;;;;;4995118;28;20034;-74
2023/11/25 08:11:43;;;;;;;5.03;2.15;;;2.30;74.70;;;;;;4995286;28;20030;-74
2023/11/25 08:14:09;;;;;;;7.22;2.40;;;2.30;74.50;;;;;;5012453;28;20109;-73
2023/11/25 08:16:35;;;;;;;9.00;2.30;;;2.40;74.60;;;;;;4995205;28;20065;-78
2023/11/25 08:19:00;;;;;;;4.78;1.88;;;2.30;74.40;;;;;;5014846;28;20018;-77
2023/11/25 08:21:26;;;;;;;12.40;2.15;;;2.30;74.40;;;;;;4995585;28;20049;-76
2023/11/25 08:23:52;;;;;;;6.82;1.90;;;2.30;74.20;;;;;;5012683;28;20049;-77
2023/11/25 08:26:22;;;;;;;7.28;1.70;;;2.30;74.80;;;;;;5012485;28;20029;-76
2023/11/25 08:28:52;;;;;;;10.85;2.17;;;2.30;74.80;;;;;;5015222;28;20056;-75
2023/11/25 08:31:20;;;;;;;4.05;1.83;;;2.30;74.70;;;;;;5016429;28;20022;-77
2023/11/25 08:33:46;;;;;;;7.65;2.33;;;2.30;74.80;;;;;;4998148;28;20057;-75
2023/11/25 08:36:14;;;;;;;7.10;1.92;;;2.40;75.70;;;;;;4998103;28;20060;-72
2023/11/25 08:38:39;;;;;;;6.18;2.15;;;2.50;74.90;;;;;;5015529;28;20061;-74
2023/11/25 08:41:09;;;;;;;8.38;1.85;;;2.60;74.30;;;;;;5015519;28;20026;-73
2023/11/25 08:43:39;;;;;;;10.50;2.00;;;2.30;75.30;;;;;;4998207;28;20395;-76
2023/11/25 08:46:05;;;;;;;7.13;2.22;;;2.50;75.60;;;;;;4998198;28;20485;-77
2023/11/25 08:48:30;;;;;;;9.13;2.95;;;2.70;74.20;;;;;;4997776;28;20124;-77
2023/11/25 08:50:57;;;;;;;11.75;2.75;;;2.80;74.10;;;;;;4997902;28;20041;-75
2023/11/25 08:53:23;;;;;;;6.82;2.25;;;2.90;74.60;;;;;;4997813;28;20026;-75
2023/11/25 08:55:48;;;;;;;10.02;2.38;;;3.00;74.00;;;;;;4997803;28;20393;-75
2023/11/25 08:58:14;;;;;;;11.82;2.38;;;2.80;74.90;;;;;;4997499;28;20053;-74
2023/11/25 09:00:40;;;;;;;11.32;2.75;;;2.90;74.70;;;;;;4997280;28;20026;-74
2023/11/25 09:03:07;;;;;;;8.23;2.67;;;2.90;74.00;;;;;;5015355;28;20022;-75
2023/11/25 09:05:36;;;;;;;13.88;4.28;;;2.90;73.90;;;;;;4998365;28;20037;-75
2023/11/25 09:08:06;;;;;;;10.20;3.00;;;3.00;78.20;;;;;;4998874;28;20018;-80
2023/11/25 09:10:34;;;;;;;9.15;3.38;;;3.30;77.40;;;;;;4999876;28;20117;-75
2023/11/25 09:13:00;;;;;;;9.30;3.15;;;3.60;75.90;;;;;;4998621;28;20030;-80
2023/11/25 09:15:25;;;;;;;9.35;2.30;;;3.90;74.50;;;;;;4998241;28;20064;-80
2023/11/25 09:17:51;;;;;;;7.45;2.42;;;4.20;74.20;;;;;;4998163;28;20018;-81
2023/11/25 09:20:17;;;;;;;10.40;2.33;;;4.50;74.50;;;;;;5015811;28;20022;-76
2023/11/25 09:22:43;;;;;;;9.38;3.00;;;4.70;71.10;;;;;;4997353;28;20026;-76
2023/11/25 09:25:12;;;;;;;9.90;3.10;;;5.00;70.80;;;;;;4997372;28;20030;-77
2023/11/25 09:27:39;;;;;;;6.43;2.72;;;5.20;66.80;;;;;;4997434;28;20057;-82
2023/11/25 09:30:05;;;;;;;7.38;2.65;;;4.90;69.30;;;;;;4997154;28;20111;-77
2023/11/25 09:32:31;;;;;;;10.00;2.65;;;5.10;68.80;;;;;;4997026;28;20042;-77
2023/11/25 09:34:57;;;;;;;13.90;6.35;;;5.60;66.40;;;;;;4998260;28;20104;-77
2023/11/25 09:37:23;;;;;;;7.47;2.72;;;5.90;66.10;;;;;;4999378;28;20018;-82
2023/11/25 09:39:49;;;;;;;7.57;2.40;;;6.30;63.30;;;;;;5018298;28;20034;-81
2023/11/25 09:42:19;;;;;;;11.70;2.25;;;6.50;63.50;;;;;;5017729;28;20092;-79
2023/11/25 09:44:44;;;;;;;7.80;2.15;;;6.60;62.60;;;;;;4997009;28;20021;-75
2023/11/25 09:47:10;;;;;;;9.88;2.83;;;6.70;60.50;;;;;;4997035;28;20480;-76
2023/11/25 09:49:36;;;;;;;5.95;2.08;;;6.40;60.40;;;;;;4997363;28;20121;-77
2023/11/25 09:52:09;;;;;;;7.22;2.72;;;6.20;63.40;;;;;;4997676;28;20075;-76
2023/11/25 09:54:35;;;;;;;7.43;2.22;;;6.00;64.60;;;;;;4997753;28;20419;-77
2023/11/25 09:57:03;;;;;;;6.28;2.47;;;5.60;66.20;;;;;;4997161;28;20030;-77
2023/11/25 09:59:30;;;;;;;9.38;2.35;;;5.80;64.80;;;;;;4996556;28;20141;-77
2023/11/25 10:01:57;;;;;;;13.07;3.00;;;5.70;64.70;;;;;;4980184;28;20433;-76
2023/11/25 10:04:27;;;;;;;8.63;2.28;;;5.80;64.80;;;;;;4996031;28;20058;-77
2023/11/25 10:06:55;;;;;;;8.63;2.28;;;5.80;64.30;;;;;;4996710;28;20033;-74
2023/11/25 10:09:21;;;;;;;9.60;2.70;;;5.50;65.50;;;;;;4996528;28;20443;-77
2023/11/25 10:11:50;;;;;;;9.93;2.40;;;5.40;65.30;;;;;;4996505;28;20053;-76
2023/11/25 10:14:17;;;;;;;8.43;2.38;;;5.20;66.80;;;;;;4995772;28;20455;-76
2023/11/25 10:16:46;;;;;;;13.82;2.70;;;5.30;66.40;;;;;;4996225;28;20518;-76
2023/11/25 10:19:20;;;;;;;13.45;2.67;;;5.50;65.50;;;;;;4995608;28;20463;-76
2023/11/25 10:21:50;;;;;;;12.13;3.05;;;5.60;64.70;;;;;;5013717;28;20038;-76
2023/11/25 10:24:20;;;;;;;9.45;2.65;;;5.60;64.50;;;;;;4996072;28;20026;-77
2023/11/25 10:26:46;;;;;;;11.88;2.63;;;5.60;66.30;;;;;;4996120;28;20034;-75
2023/11/25 10:29:14;;;;;;;18.83;3.65;;;5.90;63.40;;;;;;4996273;28;20034;-76
2023/11/25 10:31:44;;;;;;;16.92;4.85;;;5.30;65.90;;;;;;4996130;28;20054;-75
2023/11/25 10:34:10;;;;;;;14.05;3.45;;;5.20;65.90;;;;;;4996154;28;20079;-75
2023/11/25 10:36:38;;;;;;;18.23;3.40;;;4.80;66.60;;;;;;4995937;28;20056;-75
2023/11/25 10:39:08;;;;;;;21.02;4.72;;;4.50;67.40;;;;;;4995941;28;20026;-75
2023/11/25 10:41:39;;;;;;;16.80;4.20;;;4.40;68.70;;;;;;4995451;28;20022;-76
2023/11/25 10:44:07;;;;;;;15.45;3.67;;;4.30;68.00;;;;;;4995584;28;20576;-75
2023/11/25 10:46:40;;;;;;;17.02;4.70;;;4.10;69.20;;;;;;4995696;28;20104;-75
2023/11/25 10:49:08;;;;;;;16.02;4.53;;;3.90;70.90;;;;;;4995516;28;20041;-75
2023/11/25 10:51:37;;;;;;;16.85;5.00;;;4.10;69.20;;;;;;4995581;28;20033;-74
2023/11/25 10:54:03;;;;;;;12.68;2.80;;;4.30;67.90;;;;;;4995595;28;20030;-74
2023/11/25 10:56:30;;;;;;;20.05;4.63;;;3.70;70.50;;;;;;4995823;28;20041;-74
2023/11/25 10:58:58;;;;;;;18.83;4.75;;;3.70;71.40;;;;;;5012772;28;20592;-76
2023/11/25 11:01:25;;;;;;;19.63;4.43;;;3.90;71.90;;;;;;4995162;28;20026;-75
2023/11/25 11:04:20;;;;;;;14.88;3.90;;;4.40;70.00;;;;;;4995234;28;20022;-74
2023/11/25 11:06:54;;;;;;;12.45;2.88;;;4.50;66.60;;;;;;4992646;28;20041;-75
2023/11/25 11:09:21;;;;;;;15.25;3.22;;;4.00;68.70;;;;;;4996456;28;20033;-75
2023/11/25 11:11:55;;;;;;;16.52;3.50;;;3.80;70.20;;;;;;5012634;28;20017;-75
2023/11/25 11:14:22;;;;;;;18.63;3.35;;;3.50;70.60;;;;;;4995657;28;20022;-75
2023/11/25 11:17:27;;;;;;;11.30;2.88;;;3.30;72.30;;;;;;4995383;28;20406;-75
2023/11/25 11:19:56;;;;;;;25.30;3.38;;;3.40;71.90;;;;;;4995401;28;20025;-75
2023/11/25 11:22:23;;;;;;;18.88;3.53;;;3.20;72.90;;;;;;4995433;28;20022;-75
2023/11/25 11:25:06;;;;;;;18.05;3.90;;;3.30;74.30;;;;;;4995256;28;20025;-75
2023/11/25 11:27:41;;;;;;;22.38;4.03;;;3.50;72.60;;;;;;4995525;28;20037;-75
2023/11/25 11:30:17;;;;;;;17.05;4.15;;;3.80;71.80;;;;;;5012577;28;20502;-75
2023/11/25 11:32:44;;;;;;;24.20;3.88;;;4.10;70.40;;;;;;4995282;28;20045;-73
2023/11/25 11:35:12;;;;;;;14.02;3.50;;;4.10;69.60;;;;;;4995231;28;20052;-74
2023/11/25 11:37:45;;;;;;;15.40;3.60;;;4.00;69.60;;;;;;4995212;28;20121;-74
2023/11/25 11:40:12;;;;;;;9.05;2.55;;;4.00;69.60;;;;;;4995423;28;20022;-75
2023/11/25 11:42:40;;;;;;;22.60;4.10;;;4.50;68.20;;;;;;4995260;28;20028;-75
2023/11/25 11:45:24;;;;;;;13.30;3.03;;;4.30;67.90;;;;;;4995465;28;20091;-74
2023/11/25 11:47:50;;;;;;;14.65;2.63;;;4.40;66.90;;;;;;4995332;28;20498;-74
2023/11/25 11:50:41;;;;;;;11.10;2.60;;;4.60;66.40;;;;;;4995499;28;20034;-75
2023/11/25 11:53:12;;;;;;;17.73;2.95;;;4.60;62.90;;;;;;4995536;28;20034;-75
2023/11/25 11:55:39;;;;;;;13.20;3.10;;;4.40;64.80;;;;;;4995366;28;20106;-74
2023/11/25 11:58:05;;;;;;;16.98;3.40;;;4.30;66.30;;;;;;4995075;28;20045;-74
2023/11/25 12:00:35;;;;;;;10.63;2.65;;;3.80;67.70;;;;;;4995337;28;20033;-75
2023/11/25 12:03:01;;;;;;;11.48;3.20;;;4.20;67.90;;;;;;4995887;28;20034;-75
2023/11/25 12:05:26;;;;;;;14.98;2.83;;;5.00;65.80;;;;;;4998582;28;20018;-72
2023/11/25 12:07:52;;;;;;;8.93;3.00;;;6.20;61.40;;;;;;4998330;28;20455;-73
2023/11/25 12:10:19;;;;;;;10.10;2.50;;;7.10;56.10;;;;;;4998049;28;20479;-75
2023/11/25 12:12:45;;;;;;;10.95;2.67;;;8.00;52.50;;;;;;5016206;28;20022;-74
2023/11/25 12:15:11;;;;;;;12.98;2.70;;;7.70;51.60;;;;;;4998431;28;20030;-74
2023/11/25 12:17:40;;;;;;;12.35;3.20;;;6.90;54.90;;;;;;4998730;28;20049;-75
2023/11/25 12:20:08;;;;;;;13.68;3.08;;;6.40;56.60;;;;;;4998637;28;20033;-74
2023/11/25 12:22:34;;;;;;;11.20;2.95;;;5.60;59.30;;;;;;4998828;28;20022;-73
2023/11/25 12:25:00;;;;;;;15.50;3.10;;;4.80;63.30;;;;;;4998668;28;20070;-74
2023/11/25 12:27:28;;;;;;;17.20;3.58;;;4.50;64.50;;;;;;5015126;28;20492;-75
2023/11/25 12:29:54;;;;;;;14.65;2.92;;;4.30;66.30;;;;;;5015953;28;20442;-74
2023/11/25 12:32:20;;;;;;;12.25;2.97;;;4.20;66.50;;;;;;4998833;28;20084;-75
2023/11/25 12:34:45;;;;;;;16.02;3.33;;;4.10;67.40;;;;;;4999429;28;20030;-74
2023/11/25 12:37:13;;;;;;;17.17;3.50;;;3.90;67.80;;;;;;4998939;28;20048;-75
2023/11/25 12:39:38;;;;;;;9.05;2.25;;;3.80;69.20;;;;;;4998455;28;20272;-74
2023/11/25 12:42:04;;;;;;;16.58;2.63;;;3.60;69.40;;;;;;5016624;28;20053;-75
2023/11/25 12:44:48;;;;;;;9.88;2.97;;;3.60;70.60;;;;;;4998551;28;20061;-75
2023/11/25 12:47:15;;;;;;;14.15;3.53;;;3.70;70.40;;;;;;4998158;28;20026;-75
2023/11/25 12:49:41;;;;;;;9.35;2.38;;;3.70;70.80;;;;;;4998112;28;20038;-75
2023/11/25 12:52:08;;;;;;;12.68;3.25;;;3.70;70.40;;;;;;4997663;28;20062;-74
2023/11/25 12:54:46;;;;;;;15.75;3.95;;;3.60;71.00;;;;;;5015166;28;20042;-75